createdAt,value
2023-11-05T00:02:47.120Z,7.37
2023-11-05T00:05:50.500Z,7.25
2023-11-05T00:08:53.083Z,7.68
2023-11-05T00:11:56.198Z,8.07
2023-11-05T00:14:59.037Z,8.47
2023-11-05T00:18:05.481Z,8.75
2023-11-05T00:21:08.256Z,8.23
2023-11-05T00:24:11.725Z,8.02
2023-11-05T00:27:14.356Z,7.57
2023-11-05T00:30:18.079Z,7.53
2023-11-05T00:33:21.045Z,7.75
2023-11-05T00:36:25.626Z,8.18
2023-11-05T00:39:28.244Z,10.43
2023-11-05T00:42:31.470Z,8.45
2023-11-05T00:45:34.956Z,10.43
2023-11-05T00:48:38.283Z,7.95
2023-11-05T00:51:40.882Z,9.98
2023-11-05T00:54:44.782Z,9.10
2023-11-05T01:00:50.462Z,7.47
2023-11-05T01:03:58.937Z,9.07
2023-11-05T01:07:02.348Z,7.60
2023-11-05T01:10:05.677Z,8.43
2023-11-05T01:13:08.886Z,6.30
2023-11-05T01:16:11.620Z,6.50
2023-11-05T01:22:17.363Z,9.20
2023-11-05T01:28:23.233Z,7.35
2023-11-05T01:31:26.447Z,6.65
2023-11-05T01:34:29.458Z,8.90
2023-11-05T01:37:32.656Z,6.65
2023-11-05T01:40:35.369Z,7.68
2023-11-05T01:43:38.658Z,6.80
2023-11-05T01:46:41.430Z,6.50
2023-11-05T01:52:49.885Z,8.40
2023-11-05T01:55:56.043Z,6.95
2023-11-05T02:02:02.909Z,7.35
2023-11-05T02:05:06.440Z,9.40
2023-11-05T02:08:09.583Z,7.32
2023-11-05T02:11:12.488Z,8.57
2023-11-05T02:14:17.104Z,10.98
2023-11-05T02:17:22.288Z,7.05
2023-11-05T02:20:25.595Z,7.25
2023-11-05T02:26:31.923Z,7.43
2023-11-05T02:29:34.819Z,5.85
2023-11-05T02:32:37.952Z,7.35
2023-11-05T02:38:43.696Z,7.40
2023-11-05T02:41:46.615Z,10.80
2023-11-05T02:44:50.986Z,8.18
2023-11-05T02:47:54.087Z,6.68
2023-11-05T02:50:57.040Z,9.25
2023-11-05T02:54:00.553Z,7.78
2023-11-05T02:57:03.432Z,11.20
2023-11-05T03:03:12.929Z,9.27
2023-11-05T03:06:16.032Z,7.85
2023-11-05T03:09:22.257Z,8.88
2023-11-05T03:12:25.275Z,9.77
2023-11-05T03:15:28.195Z,7.35
2023-11-05T03:18:31.156Z,9.48
2023-11-05T03:21:34.300Z,7.35
2023-11-05T03:24:37.343Z,7.72
2023-11-05T03:27:40.167Z,8.05
2023-11-05T03:30:43.767Z,8.27
2023-11-05T03:33:47.037Z,7.07
2023-11-05T03:39:52.786Z,7.47
2023-11-05T03:42:55.682Z,8.90
2023-11-05T03:45:58.523Z,8.23
2023-11-05T03:49:01.391Z,9.10
2023-11-05T03:52:04.739Z,6.43
2023-11-05T03:55:08.121Z,9.05
2023-11-05T03:58:13.725Z,6.47
2023-11-05T04:01:18.944Z,7.43
2023-11-05T04:04:22.210Z,5.87
2023-11-05T04:07:25.111Z,7.80
2023-11-05T04:10:29.672Z,6.37
2023-11-05T04:13:33.406Z,7.12
2023-11-05T04:16:37.047Z,7.00
2023-11-05T04:19:40.351Z,5.10
2023-11-05T04:22:46.463Z,7.47
2023-11-05T04:25:49.370Z,6.40
2023-11-05T04:31:57.201Z,8.48
2023-11-05T04:35:00.866Z,5.20
2023-11-05T04:38:03.739Z,6.05
2023-11-05T04:41:07.063Z,7.12
2023-11-05T04:44:09.750Z,6.68
2023-11-05T04:47:12.868Z,4.03
2023-11-05T04:50:15.676Z,5.87
2023-11-05T04:53:18.856Z,6.57
2023-11-05T04:56:21.501Z,4.82
2023-11-05T05:02:27.072Z,5.75
2023-11-05T05:05:30.357Z,6.30
2023-11-05T05:08:33.080Z,4.93
2023-11-05T05:11:36.276Z,5.60
2023-11-05T05:14:39.310Z,4.97
2023-11-05T05:17:42.666Z,6.25
2023-11-05T05:20:45.356Z,5.80
2023-11-05T05:26:51.003Z,5.97
2023-11-05T05:29:54.439Z,4.90
2023-11-05T05:32:58.072Z,6.25
2023-11-05T05:36:01.405Z,4.85
2023-11-05T05:39:04.318Z,7.07
2023-11-05T05:42:07.827Z,6.68
2023-11-05T05:45:11.055Z,5.30
2023-11-05T05:48:14.267Z,4.90
2023-11-05T05:51:18.625Z,4.97
2023-11-05T05:54:22.408Z,5.75
2023-11-05T05:57:26.021Z,5.65
2023-11-05T06:00:29.355Z,4.28
2023-11-05T06:03:33.469Z,6.32
2023-11-05T06:06:37.899Z,6.55
2023-11-05T06:09:40.753Z,6.10
2023-11-05T06:12:43.793Z,7.75
2023-11-05T06:15:47.236Z,4.95
2023-11-05T06:18:50.185Z,7.57
2023-11-05T06:21:53.066Z,6.07
2023-11-05T06:24:55.896Z,5.47
2023-11-05T06:27:58.744Z,5.28
2023-11-05T06:31:01.698Z,6.70
2023-11-05T06:34:04.815Z,6.12
2023-11-05T06:37:07.745Z,7.28
2023-11-05T06:40:11.612Z,7.45
2023-11-05T06:43:14.666Z,7.82
2023-11-05T06:46:17.720Z,7.12
2023-11-05T06:49:20.615Z,5.53
2023-11-05T06:52:23.573Z,7.85
2023-11-05T06:55:26.443Z,6.15
2023-11-05T06:58:29.582Z,6.22
2023-11-05T07:01:32.536Z,5.43
2023-11-05T07:04:36.714Z,5.68
2023-11-05T07:07:39.665Z,4.10
2023-11-05T07:10:42.742Z,5.45
2023-11-05T07:13:46.821Z,6.55
2023-11-05T07:16:50.192Z,5.25
2023-11-05T07:19:54.144Z,4.65
2023-11-05T07:22:58.438Z,5.28
2023-11-05T07:26:01.302Z,7.07
2023-11-05T07:29:23.079Z,7.25
2023-11-05T07:32:26.255Z,4.53
2023-11-05T07:35:29.310Z,5.03
2023-11-05T07:38:32.279Z,5.32
2023-11-05T07:41:35.558Z,8.80
2023-11-05T07:47:41.171Z,6.47
2023-11-05T07:50:44.109Z,7.25
2023-11-05T07:53:47.011Z,7.25
2023-11-05T07:56:54.355Z,6.68
2023-11-05T07:59:57.316Z,7.43
2023-11-05T08:03:02.177Z,7.55
2023-11-05T08:06:05.538Z,7.65
2023-11-05T08:09:08.492Z,5.82
2023-11-05T08:12:11.447Z,7.05
2023-11-05T08:15:15.063Z,6.95
2023-11-05T08:18:18.091Z,6.85
2023-11-05T08:21:23.040Z,6.65
2023-11-05T08:24:25.938Z,4.55
2023-11-05T08:27:30.985Z,6.57
2023-11-05T08:30:34.132Z,8.30
2023-11-05T08:33:37.078Z,6.72
2023-11-05T08:36:40.042Z,4.70
2023-11-05T08:39:42.963Z,5.62
2023-11-05T08:42:48.966Z,6.55
2023-11-05T08:45:52.296Z,5.72
2023-11-05T08:48:55.711Z,4.82
2023-11-05T08:51:59.331Z,7.68
2023-11-05T08:55:06.934Z,6.40
2023-11-05T08:58:09.910Z,6.20
2023-11-05T09:01:13.420Z,5.68
2023-11-05T09:04:17.145Z,5.43
2023-11-05T09:07:20.261Z,5.18
2023-11-05T09:10:26.939Z,4.78
2023-11-05T09:13:30.010Z,5.70
2023-11-05T09:16:32.940Z,5.97
2023-11-05T09:19:36.774Z,6.68
2023-11-05T09:22:39.956Z,3.87
2023-11-05T09:28:45.745Z,7.85
2023-11-05T09:31:51.674Z,9.55
2023-11-05T09:34:54.921Z,5.53
2023-11-05T09:37:58.002Z,5.97
2023-11-05T09:41:02.212Z,5.65
2023-11-05T09:44:07.020Z,3.85
2023-11-05T09:47:12.384Z,4.18
2023-11-05T09:50:15.393Z,9.02
2023-11-05T09:53:19.085Z,6.85
2023-11-05T09:56:22.540Z,4.32
2023-11-05T09:59:25.441Z,4.43
2023-11-05T10:03:01.417Z,4.32
2023-11-05T10:06:05.504Z,4.18
2023-11-05T10:09:08.824Z,5.82
2023-11-05T10:12:12.057Z,5.47
2023-11-05T10:15:15.157Z,6.80
2023-11-05T10:18:20.197Z,6.57
2023-11-05T10:21:37.434Z,6.55
2023-11-05T10:24:41.307Z,5.40
2023-11-05T10:30:56.499Z,5.77
2023-11-05T10:34:04.569Z,6.72
2023-11-05T10:37:08.234Z,4.50
2023-11-05T10:40:16.041Z,6.43
2023-11-05T10:43:26.287Z,5.50
2023-11-05T10:46:32.874Z,6.35
2023-11-05T10:49:37.419Z,5.32
2023-11-05T10:52:46.425Z,5.70
2023-11-05T10:55:52.717Z,7.50
2023-11-05T10:58:57.202Z,6.75
2023-11-05T11:02:01.271Z,5.80
2023-11-05T11:08:13.171Z,7.12
2023-11-05T11:11:16.929Z,5.62
2023-11-05T11:14:21.122Z,7.87
2023-11-05T11:17:33.547Z,6.22
2023-11-05T11:20:39.187Z,4.10
2023-11-05T11:23:42.051Z,4.25
2023-11-05T11:26:45.972Z,6.50
2023-11-05T11:29:48.766Z,4.45
2023-11-05T11:32:52.198Z,7.12
2023-11-05T11:35:55.220Z,3.58
2023-11-05T11:38:58.558Z,5.20
2023-11-05T11:42:01.710Z,6.32
2023-11-05T11:45:08.383Z,4.80
2023-11-05T11:48:11.822Z,4.47
2023-11-05T11:51:16.956Z,4.35
2023-11-05T11:54:19.895Z,5.65
2023-11-05T11:57:23.954Z,7.70
2023-11-05T12:00:26.745Z,7.50
2023-11-05T12:06:39.775Z,7.47
2023-11-05T12:09:43.070Z,9.35
2023-11-05T12:12:47.967Z,7.05
2023-11-05T12:15:51.351Z,6.40
2023-11-05T12:18:54.570Z,8.20
2023-11-05T12:21:58.590Z,7.30
2023-11-05T12:25:02.849Z,6.85
2023-11-05T12:28:07.765Z,7.30
2023-11-05T12:31:10.615Z,8.43
2023-11-05T12:37:17.090Z,6.97
2023-11-05T12:43:25.031Z,5.20
2023-11-05T12:46:28.658Z,7.75
2023-11-05T12:49:31.480Z,4.15
2023-11-05T12:52:41.956Z,3.83
2023-11-05T12:55:45.338Z,3.35
2023-11-05T12:58:50.791Z,7.40
2023-11-05T13:02:02.781Z,4.53
2023-11-05T13:05:08.864Z,3.70
2023-11-05T13:08:12.498Z,3.08
2023-11-05T13:11:18.971Z,4.37
2023-11-05T13:14:25.764Z,3.00
2023-11-05T13:17:30.537Z,3.15
2023-11-05T13:20:33.812Z,1.98
2023-11-05T13:23:37.112Z,2.30
2023-11-05T13:26:40.041Z,2.40
2023-11-05T13:29:46.064Z,2.75
2023-11-05T13:32:49.331Z,3.15
2023-11-05T13:35:52.664Z,2.00
2023-11-05T13:43:11.232Z,1.60
2023-11-05T13:46:18.303Z,2.80
2023-11-05T13:49:20.973Z,1.70
2023-11-05T13:52:24.220Z,1.85
2023-11-05T13:55:26.999Z,1.77
2023-11-05T13:58:30.333Z,2.03
2023-11-05T14:01:35.171Z,1.98
2023-11-05T14:04:38.831Z,2.30
2023-11-05T14:10:54.033Z,2.00
2023-11-05T14:13:59.864Z,1.98
2023-11-05T14:17:03.442Z,2.10
2023-11-05T14:20:11.761Z,1.77
2023-11-05T14:23:23.301Z,1.98
2023-11-05T14:26:26.622Z,2.40
2023-11-05T14:29:35.547Z,2.30
2023-11-05T14:32:39.914Z,2.17
2023-11-05T14:35:46.228Z,5.03
2023-11-05T14:38:53.335Z,1.50
2023-11-05T14:41:56.736Z,2.10
2023-11-05T14:45:04.841Z,1.75
2023-11-05T14:48:14.679Z,2.62
2023-11-05T14:51:33.626Z,2.15
2023-11-05T14:54:38.478Z,2.12
2023-11-05T14:57:42.405Z,2.40
2023-11-05T15:00:47.201Z,1.80
2023-11-05T15:03:52.329Z,2.15
2023-11-05T15:06:56.991Z,1.90
2023-11-05T15:10:02.297Z,2.45
2023-11-05T15:13:08.437Z,2.50
2023-11-05T15:16:12.043Z,2.53
2023-11-05T15:19:15.825Z,3.78
2023-11-05T15:22:19.784Z,1.98
2023-11-05T15:25:25.081Z,2.97
2023-11-05T15:28:29.486Z,2.62
2023-11-05T15:31:36.496Z,1.92
2023-11-05T15:34:50.163Z,2.30
2023-11-05T15:38:00.647Z,2.50
2023-11-05T15:47:07.957Z,3.58
2023-11-05T15:50:42.287Z,2.55
2023-11-05T15:53:51.674Z,2.95
2023-11-05T15:57:27.270Z,3.15
2023-11-05T16:10:27.306Z,3.45
2023-11-05T16:16:49.203Z,4.50
2023-11-05T16:20:07.438Z,3.47
2023-11-05T16:23:29.201Z,3.40
2023-11-05T16:31:04.088Z,3.92
2023-11-05T16:31:54.773Z,5.32
2023-11-05T16:35:06.995Z,6.53
2023-11-05T16:38:12.607Z,5.90
2023-11-05T16:41:17.395Z,6.30
2023-11-05T16:44:20.499Z,5.70
2023-11-05T16:47:25.106Z,6.37
2023-11-05T16:50:27.828Z,6.85
2023-11-05T16:56:35.933Z,7.62
2023-11-05T16:59:39.745Z,7.12
2023-11-05T17:02:42.631Z,6.43
2023-11-05T17:05:46.192Z,7.10
2023-11-05T17:08:48.889Z,6.82
2023-11-05T17:15:02.767Z,8.98
2023-11-05T17:18:14.847Z,9.20
2023-11-05T17:21:20.407Z,8.57
2023-11-05T17:24:23.702Z,7.68
2023-11-05T17:27:27.683Z,7.87
2023-11-05T17:30:31.852Z,11.07
2023-11-05T17:33:37.935Z,6.75
2023-11-05T17:36:41.676Z,8.18
2023-11-05T17:39:44.416Z,8.50
2023-11-05T17:42:47.681Z,7.32
2023-11-05T17:45:52.975Z,10.18
2023-11-05T17:48:58.243Z,8.63
2023-11-05T17:52:00.885Z,8.15
2023-11-05T17:55:06.185Z,7.70
2023-11-05T17:58:08.809Z,8.93
2023-11-05T18:01:15.352Z,9.82
2023-11-05T18:04:18.900Z,9.55
2023-11-05T18:07:21.974Z,8.85
2023-11-05T18:10:42.810Z,8.25
2023-11-05T18:13:53.455Z,9.32
2023-11-05T18:16:56.459Z,8.73
2023-11-05T18:20:00.765Z,9.55
2023-11-05T18:23:03.910Z,10.32
2023-11-05T18:26:07.035Z,12.27
2023-11-05T18:29:10.048Z,13.27
2023-11-05T18:32:12.922Z,9.95
2023-11-05T18:35:16.008Z,10.77
2023-11-05T18:38:19.338Z,12.48
2023-11-05T18:41:22.242Z,9.57
2023-11-05T18:44:25.435Z,10.68
2023-11-05T18:47:28.791Z,12.65
2023-11-05T18:50:31.750Z,14.18
2023-11-05T18:53:35.433Z,15.52
2023-11-05T18:56:38.445Z,11.18
2023-11-05T18:59:41.376Z,13.98
2023-11-05T19:02:45.233Z,12.82
2023-11-05T19:05:48.327Z,12.75
2023-11-05T19:08:51.178Z,13.85
2023-11-05T19:11:54.824Z,12.40
2023-11-05T19:14:58.595Z,14.52
2023-11-05T19:18:02.487Z,10.75
2023-11-05T19:21:05.717Z,10.35
2023-11-05T19:24:08.754Z,9.90
2023-11-05T19:27:11.899Z,9.85
2023-11-05T19:30:16.384Z,9.25
2023-11-05T19:33:20.488Z,10.25
2023-11-05T19:36:26.424Z,11.68
2023-11-05T19:39:30.488Z,12.05
2023-11-05T19:42:34.995Z,12.68
2023-11-05T19:45:38.193Z,12.37
2023-11-05T19:48:41.440Z,13.93
2023-11-05T19:54:48.426Z,17.20
2023-11-05T19:58:03.931Z,19.33
2023-11-05T20:01:10.797Z,17.75
2023-11-05T20:04:14.878Z,19.17
2023-11-05T20:07:17.934Z,19.50
2023-11-05T20:10:21.308Z,20.37
2023-11-05T20:13:23.942Z,18.77
2023-11-05T20:19:29.897Z,19.90
2023-11-05T20:22:33.024Z,19.80
2023-11-05T20:25:36.105Z,18.77
2023-11-05T20:28:41.442Z,19.90
2023-11-05T20:31:45.843Z,17.95
2023-11-05T20:34:49.299Z,17.80
2023-11-05T20:37:52.053Z,17.40
2023-11-05T20:43:58.412Z,15.70
2023-11-05T20:47:03.476Z,14.80
2023-11-05T20:50:06.860Z,17.25
2023-11-05T20:53:10.233Z,17.15
2023-11-05T20:56:14.200Z,16.17
2023-11-05T20:59:17.556Z,16.65
2023-11-05T21:02:20.196Z,16.75
2023-11-05T21:05:23.475Z,17.27
2023-11-05T21:08:26.171Z,17.83
2023-11-05T21:14:34.216Z,16.77
2023-11-05T21:17:37.994Z,16.10
2023-11-05T21:20:40.849Z,16.75
2023-11-05T21:23:44.030Z,18.83
2023-11-05T21:26:47.522Z,16.75
2023-11-05T21:29:50.673Z,16.80
2023-11-05T21:32:54.518Z,20.35
2023-11-05T21:35:58.130Z,20.08
2023-11-05T21:39:03.331Z,19.55
2023-11-05T21:42:06.488Z,19.67
2023-11-05T21:45:09.514Z,18.83
2023-11-05T21:48:12.777Z,22.37
2023-11-05T21:51:15.532Z,21.40
2023-11-05T21:57:22.776Z,23.42
2023-11-05T22:03:28.832Z,24.52
2023-11-05T22:06:32.061Z,23.23
2023-11-05T22:09:35.184Z,24.75
2023-11-05T22:12:38.078Z,21.75
2023-11-05T22:15:40.911Z,21.02
2023-11-05T22:18:43.879Z,22.30
2023-11-05T22:21:48.125Z,20.40
2023-11-05T22:24:52.989Z,17.77
2023-11-05T22:27:55.896Z,19.48
2023-11-05T22:30:58.829Z,17.98
2023-11-05T22:34:02.878Z,18.48
2023-11-05T22:37:07.000Z,18.02
2023-11-05T22:40:12.139Z,19.58
2023-11-05T22:43:15.141Z,16.00
2023-11-05T22:46:18.167Z,15.20
2023-11-05T22:49:25.144Z,14.05
2023-11-05T22:52:28.533Z,11.40
2023-11-05T22:55:31.406Z,12.40
2023-11-05T22:58:34.313Z,9.90
2023-11-05T23:01:37.966Z,9.95
2023-11-05T23:04:40.941Z,9.88
2023-11-05T23:07:44.784Z,11.77
2023-11-05T23:10:47.796Z,9.88
2023-11-05T23:13:50.606Z,10.18
2023-11-05T23:16:53.666Z,11.48
2023-11-05T23:19:57.007Z,11.27
2023-11-05T23:23:00.216Z,12.85
2023-11-05T23:26:03.180Z,13.30
2023-11-05T23:29:06.217Z,13.98
2023-11-05T23:32:11.369Z,13.65
2023-11-05T23:35:14.472Z,14.85
2023-11-05T23:38:17.619Z,15.13
2023-11-05T23:41:22.476Z,16.37
2023-11-05T23:44:25.363Z,16.90
2023-11-05T23:47:28.321Z,16.30
2023-11-05T23:50:31.216Z,16.87
2023-11-05T23:53:34.043Z,17.92
2023-11-05T23:56:36.905Z,15.77
2023-11-05T23:59:40.101Z,16.25
